Almond, North Carolina
Current Conditions -  °F | °C
As of 9:55 AM on Wednesday 22 Oct 2014 (Local Time) from KRHP Reporting Station
Scattered Clouds Scattered Clouds  
Wind Chill: 10°   Ceiling: Unl
Heat Index: 10°   Visibility: 10mi
Dew Point:   Wind: 7mph
Humidity: 60%   Direction: 80°E
Pressure: 30.15"   Gusts: NA
Location:  35.37°N, 83.57°W
Report Text: KRHP 221355Z AUTO 08006KT 10SM SCT036 10/03 A3015 RMK AO2 T01030029
Loading
Personal Weather Stations






























Interactive Weather Map
Tropical Storm Tracking
New forecast layout! Learn more

10-Day Weather Forecast

Advertisements
Track Severe Weather on mobile